createdAt,value
2022-10-20T00:01:08.294Z,5.33
2022-10-20T00:03:56.218Z,5.23
2022-10-20T00:06:42.798Z,5.80
2022-10-20T00:09:29.335Z,5.90
2022-10-20T00:12:15.712Z,5.23
2022-10-20T00:15:01.920Z,5.70
2022-10-20T00:17:49.905Z,5.13
2022-10-20T00:20:36.477Z,5.23
2022-10-20T00:23:23.554Z,5.13
2022-10-20T00:26:13.556Z,5.50
2022-10-20T00:29:00.249Z,5.40
2022-10-20T00:31:46.643Z,4.97
2022-10-20T00:34:34.388Z,6.00
2022-10-20T00:37:20.633Z,5.10
2022-10-20T00:40:07.821Z,4.73
2022-10-20T00:42:53.937Z,4.77
2022-10-20T00:45:41.630Z,4.97
2022-10-20T00:48:31.984Z,4.93
2022-10-20T00:51:23.271Z,4.37
2022-10-20T00:54:14.522Z,4.70
2022-10-20T00:59:52.870Z,4.73
2022-10-20T01:02:39.091Z,4.50
2022-10-20T01:05:26.165Z,3.90
2022-10-20T01:08:13.694Z,4.70
2022-10-20T01:11:08.633Z,4.43
2022-10-20T01:14:15.430Z,4.57
2022-10-20T01:17:07.298Z,3.83
2022-10-20T01:20:30.820Z,4.23
2022-10-20T01:23:38.962Z,4.20
2022-10-20T01:26:58.360Z,3.73
2022-10-20T01:29:51.279Z,4.87
2022-10-20T01:32:57.746Z,3.90
2022-10-20T01:35:51.798Z,4.80
2022-10-20T01:38:43.567Z,4.40
2022-10-20T01:41:34.955Z,4.63
2022-10-20T01:44:24.764Z,4.30
2022-10-20T01:47:13.926Z,4.37
2022-10-20T01:50:00.587Z,4.83
2022-10-20T01:52:46.943Z,4.07
2022-10-20T01:55:34.245Z,5.03
2022-10-20T01:58:48.717Z,4.23
2022-10-20T02:01:55.347Z,4.13
2022-10-20T02:05:01.943Z,4.00
2022-10-20T02:07:48.278Z,3.93
2022-10-20T02:10:42.463Z,4.13
2022-10-20T02:13:31.371Z,4.00
2022-10-20T02:16:24.468Z,4.17
2022-10-20T02:19:14.279Z,4.30
2022-10-20T02:22:05.393Z,4.37
2022-10-20T02:24:51.859Z,4.10
2022-10-20T02:27:41.497Z,3.87
2022-10-20T02:30:27.784Z,4.50
2022-10-20T02:33:15.466Z,3.80
2022-10-20T02:36:06.546Z,3.83
2022-10-20T02:38:54.278Z,4.77
2022-10-20T02:41:40.786Z,4.13
2022-10-20T02:44:27.301Z,4.43
2022-10-20T02:47:13.930Z,4.63
2022-10-20T02:50:01.590Z,4.23
2022-10-20T02:52:47.848Z,3.73
2022-10-20T02:55:35.654Z,4.23
2022-10-20T02:58:22.150Z,4.47
2022-10-20T03:01:08.729Z,4.07
2022-10-20T03:03:58.491Z,4.07
2022-10-20T03:06:44.947Z,4.00
2022-10-20T03:09:31.252Z,4.03
2022-10-20T03:12:19.147Z,4.37
2022-10-20T03:15:06.082Z,4.50
2022-10-20T03:17:52.522Z,4.07
2022-10-20T03:20:38.915Z,4.20
2022-10-20T03:23:25.678Z,3.77
2022-10-20T03:26:12.814Z,4.17
2022-10-20T03:29:00.777Z,3.83
2022-10-20T03:31:47.525Z,3.90
2022-10-20T03:34:34.047Z,4.20
2022-10-20T03:37:20.430Z,4.20
2022-10-20T03:40:08.075Z,4.30
2022-10-20T03:42:54.327Z,4.20
2022-10-20T03:45:42.246Z,4.33
2022-10-20T03:48:28.519Z,4.53
2022-10-20T03:51:15.794Z,4.10
2022-10-20T03:54:02.319Z,4.53
2022-10-20T03:56:48.665Z,4.40
2022-10-20T03:59:35.225Z,4.43
2022-10-20T04:02:34.750Z,4.53
2022-10-20T04:05:22.362Z,4.47
2022-10-20T04:08:08.811Z,4.40
2022-10-20T04:10:54.984Z,4.50
2022-10-20T04:13:41.827Z,5.27
2022-10-20T04:16:28.061Z,4.60
2022-10-20T04:19:16.031Z,5.10
2022-10-20T04:22:02.505Z,5.07
2022-10-20T04:24:49.663Z,5.13
2022-10-20T04:27:36.374Z,5.10
2022-10-20T04:30:23.033Z,4.60
2022-10-20T04:33:09.849Z,4.40
2022-10-20T04:36:00.220Z,4.97
2022-10-20T04:38:46.816Z,4.87
2022-10-20T04:41:33.143Z,4.43
2022-10-20T04:44:19.434Z,5.63
2022-10-20T04:47:05.967Z,5.97
2022-10-20T04:49:52.270Z,5.87
2022-10-20T04:52:40.036Z,4.70
2022-10-20T04:55:26.393Z,4.90
2022-10-20T04:58:13.140Z,5.57
2022-10-20T05:01:02.445Z,6.00
2022-10-20T05:03:49.000Z,5.23
2022-10-20T05:06:35.294Z,5.40
2022-10-20T05:09:22.876Z,5.00
2022-10-20T05:12:09.444Z,5.33
2022-10-20T05:14:56.009Z,5.60
2022-10-20T05:17:42.248Z,7.17
2022-10-20T05:20:30.997Z,6.53
2022-10-20T05:23:20.167Z,6.50
2022-10-20T05:26:09.638Z,6.00
2022-10-20T05:28:56.236Z,5.47
2022-10-20T05:31:43.977Z,5.60
2022-10-20T05:34:30.696Z,5.53
2022-10-20T05:37:17.278Z,5.80
2022-10-20T05:40:06.477Z,5.90
2022-10-20T05:42:54.220Z,5.63
2022-10-20T05:45:40.611Z,5.50
2022-10-20T05:48:26.945Z,5.70
2022-10-20T05:51:15.459Z,5.90
2022-10-20T05:54:02.221Z,5.50
2022-10-20T05:56:48.780Z,6.23
2022-10-20T05:59:36.406Z,5.70
2022-10-20T06:02:22.791Z,5.67
2022-10-20T06:05:09.949Z,5.63
2022-10-20T06:07:56.399Z,5.53
2022-10-20T06:10:43.006Z,5.00
2022-10-20T06:13:29.317Z,5.00
2022-10-20T06:16:21.359Z,5.10
2022-10-20T06:19:07.822Z,4.70
2022-10-20T06:21:54.742Z,4.93
2022-10-20T06:24:41.333Z,5.00
2022-10-20T06:27:28.713Z,4.90
2022-10-20T06:30:14.806Z,5.47
2022-10-20T06:33:02.439Z,5.20
2022-10-20T06:35:48.583Z,5.20
2022-10-20T06:38:34.877Z,4.87
2022-10-20T06:41:21.264Z,5.40
2022-10-20T06:44:07.590Z,5.30
2022-10-20T06:46:54.485Z,4.90
2022-10-20T06:49:42.499Z,4.77
2022-10-20T06:52:29.101Z,6.00
2022-10-20T06:55:15.477Z,4.80
2022-10-20T06:58:02.400Z,4.80
2022-10-20T07:00:48.984Z,4.80
2022-10-20T07:03:36.779Z,4.60
2022-10-20T07:06:26.196Z,4.47
2022-10-20T07:09:16.927Z,4.97
2022-10-20T07:12:03.670Z,4.97
2022-10-20T07:14:49.964Z,4.80
2022-10-20T07:17:36.344Z,5.20
2022-10-20T07:20:22.729Z,5.20
2022-10-20T07:23:11.012Z,4.77
2022-10-20T07:26:01.851Z,5.13
2022-10-20T07:28:55.422Z,5.17
2022-10-20T07:31:44.970Z,5.60
2022-10-20T07:34:31.436Z,5.47
2022-10-20T07:37:18.126Z,5.93
2022-10-20T07:40:06.983Z,5.67
2022-10-20T07:42:53.558Z,5.57
2022-10-20T07:45:40.214Z,6.50
2022-10-20T07:48:26.511Z,6.17
2022-10-20T07:51:18.744Z,5.40
2022-10-20T07:54:07.239Z,5.63
2022-10-20T07:56:54.836Z,6.10
2022-10-20T07:59:41.226Z,5.87
2022-10-20T08:02:27.464Z,6.20
2022-10-20T08:05:14.359Z,6.43
2022-10-20T08:08:01.200Z,5.70
2022-10-20T08:10:47.496Z,5.77
2022-10-20T08:13:35.496Z,5.80
2022-10-20T08:19:37.856Z,5.53
2022-10-20T08:22:24.646Z,6.30
2022-10-20T08:25:14.434Z,6.00
2022-10-20T08:28:00.701Z,5.30
2022-10-20T08:30:49.117Z,5.87
2022-10-20T08:33:36.610Z,5.63
2022-10-20T08:36:23.556Z,5.47
2022-10-20T08:39:09.690Z,5.80
2022-10-20T08:42:12.887Z,6.10
2022-10-20T08:45:01.126Z,5.53
2022-10-20T08:47:51.414Z,5.93
2022-10-20T08:50:41.198Z,5.60
2022-10-20T08:53:30.428Z,5.70
2022-10-20T08:56:16.965Z,6.27
2022-10-20T08:59:04.321Z,5.90
2022-10-20T09:01:50.524Z,6.00
2022-10-20T09:04:44.329Z,6.37
2022-10-20T09:07:34.223Z,5.57
2022-10-20T09:10:33.115Z,6.00
2022-10-20T09:13:24.520Z,6.17
2022-10-20T09:16:27.127Z,5.03
2022-10-20T09:19:24.421Z,5.30
2022-10-20T09:22:14.574Z,5.93
2022-10-20T09:25:00.850Z,6.20
2022-10-20T09:27:47.661Z,5.87
2022-10-20T09:30:35.545Z,5.93
2022-10-20T09:33:28.259Z,5.43
2022-10-20T09:36:17.480Z,5.70
2022-10-20T09:39:05.766Z,6.17
2022-10-20T09:44:55.334Z,5.43
2022-10-20T09:47:45.133Z,5.20
2022-10-20T09:50:35.349Z,5.83
2022-10-20T09:53:25.944Z,5.47
2022-10-20T09:56:13.868Z,6.03
2022-10-20T09:59:02.073Z,5.43
2022-10-20T10:01:56.841Z,5.57
2022-10-20T10:04:45.010Z,5.73
2022-10-20T10:07:32.858Z,6.07
2022-10-20T10:10:28.743Z,5.73
2022-10-20T10:13:26.593Z,5.90
2022-10-20T10:16:15.619Z,5.97
2022-10-20T10:19:03.657Z,6.03
2022-10-20T10:21:54.007Z,6.00
2022-10-20T10:24:46.336Z,5.83
2022-10-20T10:27:34.465Z,5.97
2022-10-20T10:30:35.549Z,5.40
2022-10-20T10:33:27.097Z,5.60
2022-10-20T10:36:28.970Z,5.50
2022-10-20T10:39:16.555Z,5.70
2022-10-20T10:42:27.275Z,5.43
2022-10-20T10:45:23.577Z,5.43
2022-10-20T10:48:37.670Z,5.20
2022-10-20T10:51:33.732Z,5.67
2022-10-20T10:54:36.667Z,5.23
2022-10-20T10:57:32.853Z,5.07
2022-10-20T11:00:29.873Z,5.07
2022-10-20T11:03:30.754Z,6.73
2022-10-20T11:06:30.844Z,4.57
2022-10-20T11:09:28.887Z,5.10
2022-10-20T11:12:36.623Z,4.73
2022-10-20T11:15:34.494Z,4.57
2022-10-20T11:18:35.987Z,4.67
2022-10-20T11:21:33.424Z,4.03
2022-10-20T11:24:40.795Z,4.40
2022-10-20T11:27:30.799Z,4.20
2022-10-20T11:30:20.957Z,4.10
2022-10-20T11:33:14.795Z,4.00
2022-10-20T11:36:09.601Z,4.33
2022-10-20T11:38:57.782Z,4.30
2022-10-20T11:41:49.192Z,3.90
2022-10-20T11:44:40.785Z,3.77
2022-10-20T11:47:35.539Z,3.80
2022-10-20T11:50:22.524Z,3.83
2022-10-20T11:53:31.362Z,3.50
2022-10-20T11:56:56.081Z,3.73
2022-10-20T12:00:08.625Z,4.10
2022-10-20T12:03:16.173Z,3.80
2022-10-20T12:06:38.305Z,3.80
2022-10-20T12:09:54.842Z,3.30
2022-10-20T12:12:50.899Z,3.53
2022-10-20T12:15:46.581Z,3.33
2022-10-20T12:18:34.683Z,3.30
2022-10-20T12:21:58.917Z,3.23
2022-10-20T12:25:34.545Z,3.00
2022-10-20T12:28:45.546Z,3.50
2022-10-20T12:32:01.700Z,3.40
2022-10-20T12:34:50.121Z,3.43
2022-10-20T12:37:42.275Z,3.60
2022-10-20T12:40:33.488Z,3.70
2022-10-20T12:43:33.963Z,3.47
2022-10-20T12:46:24.238Z,4.20
2022-10-20T12:49:22.576Z,3.78
2022-10-20T12:52:18.774Z,3.60
2022-10-20T12:55:09.830Z,3.43
2022-10-20T12:58:12.001Z,3.60
2022-10-20T13:01:06.658Z,4.07
2022-10-20T13:03:53.167Z,4.57
2022-10-20T13:06:45.869Z,3.73
2022-10-20T13:09:32.275Z,3.90
2022-10-20T13:12:28.967Z,4.95
2022-10-20T13:15:20.711Z,4.27
2022-10-20T13:18:17.244Z,3.83
2022-10-20T13:21:19.297Z,3.80
2022-10-20T13:24:19.495Z,3.80
2022-10-20T13:27:10.679Z,3.97
2022-10-20T13:29:58.752Z,4.17
2022-10-20T13:33:11.135Z,3.97
2022-10-20T13:36:06.734Z,5.18
2022-10-20T13:38:58.583Z,5.35
2022-10-20T13:41:56.802Z,6.10
2022-10-20T13:44:52.178Z,5.03
2022-10-20T13:47:49.101Z,5.22
2022-10-20T13:50:39.326Z,4.77
2022-10-20T13:53:28.011Z,4.60
2022-10-20T13:56:22.908Z,4.65
2022-10-20T14:02:26.180Z,4.55
2022-10-20T14:05:15.235Z,4.80
2022-10-20T14:08:06.175Z,4.53
2022-10-20T14:10:56.579Z,4.80
2022-10-20T14:13:44.408Z,5.03
2022-10-20T14:16:32.435Z,4.60
2022-10-20T14:19:23.212Z,4.77
2022-10-20T14:22:21.237Z,4.33
2022-10-20T14:25:10.819Z,5.30
2022-10-20T14:27:58.318Z,4.53
2022-10-20T14:30:44.685Z,5.05
2022-10-20T14:33:31.716Z,4.57
2022-10-20T14:36:21.306Z,4.75
2022-10-20T14:39:30.223Z,5.13
2022-10-20T14:42:23.985Z,4.93
2022-10-20T14:45:19.664Z,5.37
2022-10-20T14:48:09.718Z,5.00
2022-10-20T14:50:56.285Z,4.93
2022-10-20T14:53:42.702Z,5.50
2022-10-20T14:56:30.684Z,5.67
2022-10-20T14:59:18.574Z,5.63
2022-10-20T15:02:10.550Z,6.40
2022-10-20T15:04:57.002Z,5.43
2022-10-20T15:07:43.403Z,5.40
2022-10-20T15:10:32.028Z,5.20
2022-10-20T15:13:27.796Z,5.50
2022-10-20T15:16:40.396Z,5.20
2022-10-20T15:19:35.777Z,5.07
2022-10-20T15:22:22.414Z,5.37
2022-10-20T15:25:09.335Z,5.37
2022-10-20T15:27:56.897Z,5.57
2022-10-20T15:30:44.956Z,4.57
2022-10-20T15:33:31.475Z,5.00
2022-10-20T15:36:20.750Z,4.73
2022-10-20T15:39:07.790Z,5.55
2022-10-20T15:41:54.206Z,4.93
2022-10-20T15:44:40.558Z,4.57
2022-10-20T15:47:28.353Z,4.83
2022-10-20T15:50:15.682Z,5.13
2022-10-20T15:53:25.995Z,4.70
2022-10-20T15:56:12.292Z,4.57
2022-10-20T15:58:58.853Z,4.77
2022-10-20T16:01:45.134Z,4.70
2022-10-20T16:04:32.918Z,4.37
2022-10-20T16:07:19.402Z,4.83
2022-10-20T16:10:06.877Z,4.77
2022-10-20T16:12:53.562Z,5.07
2022-10-20T16:15:40.034Z,5.07
2022-10-20T16:18:26.497Z,5.00
2022-10-20T16:21:14.657Z,5.00
2022-10-20T16:24:01.689Z,4.70
2022-10-20T16:26:48.019Z,4.90
2022-10-20T16:29:34.320Z,5.40
2022-10-20T16:32:20.826Z,4.87
2022-10-20T16:35:07.919Z,4.97
2022-10-20T16:37:55.941Z,4.90
2022-10-20T16:40:42.873Z,5.50
2022-10-20T16:43:29.636Z,4.67
2022-10-20T16:46:16.294Z,4.80
2022-10-20T16:49:02.802Z,5.53
2022-10-20T16:51:49.219Z,4.90
2022-10-20T16:54:37.783Z,5.47
2022-10-20T16:57:24.069Z,5.13
2022-10-20T17:00:11.181Z,5.20
2022-10-20T17:02:57.744Z,5.13
2022-10-20T17:05:44.068Z,4.93
2022-10-20T17:08:31.865Z,5.50
2022-10-20T17:11:22.650Z,5.37
2022-10-20T17:14:09.352Z,6.40
2022-10-20T17:16:55.822Z,5.03
2022-10-20T17:19:43.254Z,5.33
2022-10-20T17:22:29.530Z,5.37
2022-10-20T17:25:16.092Z,5.63
2022-10-20T17:28:04.045Z,5.40
2022-10-20T17:30:52.925Z,5.53
2022-10-20T17:33:40.501Z,5.50
2022-10-20T17:36:29.287Z,5.87
2022-10-20T17:39:17.300Z,5.93
2022-10-20T17:42:03.684Z,6.37
2022-10-20T17:44:51.543Z,5.73
2022-10-20T17:47:40.084Z,5.73
2022-10-20T17:50:26.904Z,5.87
2022-10-20T17:53:13.736Z,5.47
2022-10-20T17:56:02.416Z,5.87
2022-10-20T17:58:51.332Z,6.00
2022-10-20T18:01:40.815Z,5.83
2022-10-20T18:04:27.830Z,6.03
2022-10-20T18:07:14.506Z,6.10
2022-10-20T18:10:01.150Z,5.43
2022-10-20T18:12:47.707Z,5.73
2022-10-20T18:15:34.436Z,5.83
2022-10-20T18:18:22.021Z,6.27
2022-10-20T18:21:09.946Z,6.20
2022-10-20T18:23:57.549Z,6.00
2022-10-20T18:26:44.849Z,5.70
2022-10-20T18:29:31.114Z,5.63
2022-10-20T18:32:17.712Z,6.63
2022-10-20T18:35:06.054Z,5.57
2022-10-20T18:37:57.373Z,5.90
2022-10-20T18:40:43.522Z,5.87
2022-10-20T18:43:30.946Z,5.57
2022-10-20T18:46:18.570Z,6.00
2022-10-20T18:49:07.016Z,5.37
2022-10-20T18:51:55.215Z,6.13
2022-10-20T18:54:41.796Z,5.60
2022-10-20T18:57:28.435Z,5.27
2022-10-20T19:00:15.485Z,5.57
2022-10-20T19:03:04.130Z,5.50
2022-10-20T19:05:50.730Z,5.70
2022-10-20T19:08:39.019Z,5.23
2022-10-20T19:11:27.735Z,5.10
2022-10-20T19:14:14.941Z,5.43
2022-10-20T19:17:01.681Z,9.63
2022-10-20T19:19:48.226Z,5.43
2022-10-20T19:22:35.540Z,4.60
2022-10-20T19:25:23.410Z,5.90
2022-10-20T19:28:12.550Z,4.77
2022-10-20T19:30:59.639Z,5.60
2022-10-20T19:33:46.427Z,6.30
2022-10-20T19:36:33.530Z,5.80
2022-10-20T19:42:17.478Z,5.97
2022-10-20T19:45:05.926Z,5.87
2022-10-20T19:47:52.457Z,5.80
2022-10-20T19:50:38.561Z,6.20
2022-10-20T19:53:26.015Z,6.70
2022-10-20T19:56:12.898Z,6.90
2022-10-20T19:59:01.493Z,6.43
2022-10-20T20:01:49.536Z,6.03
2022-10-20T20:04:36.035Z,6.70
2022-10-20T20:07:22.403Z,6.40
2022-10-20T20:10:10.110Z,5.60
2022-10-20T20:12:56.631Z,6.17
2022-10-20T20:15:44.175Z,6.57
2022-10-20T20:18:30.544Z,6.37
2022-10-20T20:21:17.310Z,6.50
2022-10-20T20:24:05.514Z,5.83
2022-10-20T20:26:52.160Z,6.00
2022-10-20T20:29:38.516Z,6.03
2022-10-20T20:32:26.674Z,5.73
2022-10-20T20:35:14.093Z,6.17
2022-10-20T20:38:00.646Z,6.77
2022-10-20T20:40:47.433Z,6.60
2022-10-20T20:43:35.290Z,6.50
2022-10-20T20:46:24.205Z,6.70
2022-10-20T20:49:11.910Z,6.73
2022-10-20T20:51:58.738Z,6.13
2022-10-20T20:54:45.240Z,7.40
2022-10-20T20:57:31.611Z,6.43
2022-10-20T21:00:18.100Z,6.40
2022-10-20T21:03:04.774Z,6.60
2022-10-20T21:05:52.680Z,6.13
2022-10-20T21:08:40.257Z,6.60
2022-10-20T21:11:28.121Z,6.83
2022-10-20T21:14:14.466Z,6.70
2022-10-20T21:17:00.902Z,7.30
2022-10-20T21:19:47.322Z,7.00
2022-10-20T21:22:35.110Z,6.83
2022-10-20T21:25:21.530Z,6.17
2022-10-20T21:28:07.670Z,6.80
2022-10-20T21:30:56.268Z,11.73
2022-10-20T21:33:50.111Z,7.07
2022-10-20T21:36:37.784Z,6.90
2022-10-20T21:39:25.572Z,6.53
2022-10-20T21:42:11.635Z,6.20
2022-10-20T21:44:57.957Z,6.30
2022-10-20T21:47:45.068Z,6.67
2022-10-20T21:50:31.258Z,6.83
2022-10-20T21:53:17.897Z,6.10
2022-10-20T21:56:06.146Z,6.83
2022-10-20T21:58:53.208Z,6.57
2022-10-20T22:01:39.327Z,6.60
2022-10-20T22:04:27.523Z,6.47
2022-10-20T22:07:14.076Z,6.73
2022-10-20T22:10:00.229Z,6.83
2022-10-20T22:12:47.988Z,6.90
2022-10-20T22:15:38.166Z,6.40
2022-10-20T22:18:24.808Z,7.03
2022-10-20T22:21:15.669Z,6.70
2022-10-20T22:24:02.196Z,7.37
2022-10-20T22:26:51.414Z,7.13
2022-10-20T22:29:39.114Z,7.13
2022-10-20T22:32:25.367Z,6.80
2022-10-20T22:35:11.991Z,6.93
2022-10-20T22:37:58.242Z,7.43
2022-10-20T22:40:44.969Z,6.87
2022-10-20T22:43:32.408Z,8.00
2022-10-20T22:46:20.272Z,8.63
2022-10-20T22:49:07.158Z,7.50
2022-10-20T22:51:53.577Z,6.90
2022-10-20T22:54:40.125Z,7.13
2022-10-20T22:57:26.664Z,6.57
2022-10-20T23:00:14.181Z,6.43
2022-10-20T23:03:01.858Z,6.47
2022-10-20T23:05:48.361Z,7.03
2022-10-20T23:08:38.891Z,6.60
2022-10-20T23:11:25.935Z,7.33
2022-10-20T23:14:12.187Z,6.27
2022-10-20T23:16:58.441Z,6.20
2022-10-20T23:19:45.953Z,6.43
2022-10-20T23:22:32.612Z,6.50
2022-10-20T23:25:19.055Z,6.10
2022-10-20T23:28:05.859Z,6.27
2022-10-20T23:30:52.224Z,6.07
2022-10-20T23:33:39.517Z,6.70
2022-10-20T23:36:27.553Z,6.93
2022-10-20T23:39:13.807Z,7.17
2022-10-20T23:42:03.498Z,7.67
2022-10-20T23:44:53.335Z,6.40
2022-10-20T23:47:40.189Z,6.60
2022-10-20T23:50:26.835Z,6.73
2022-10-20T23:53:14.402Z,7.13
2022-10-20T23:56:01.081Z,6.37
2022-10-20T23:58:47.543Z,6.17
